Aviation Digital Data Service (ADDS)

Output produced by METARs form (2011 UTC 25 August 2016)
found at http://www.aviationweather.gov/adds/metars/
 
KGED 251954Z AUTO 20014KT 10SM CLR 31/20 A3006 RMK AO2 SLP177 T03060200